Cecilville, California
Current Conditions -  °F | °C
As of 12:10 AM on Thursday 18 Dec 2014 (Local Time) from KO86 Reporting Station
Overcast Overcast  
Wind Chill: 39°   Ceiling: 3700
Heat Index: 39°   Visibility: 8mi
Dew Point: 37°   Wind: 3mph
Humidity: 93%   Direction: 310°NW
Pressure: 30.08"   Gusts: NA
Location:  41.14°N, 123.14°W
Report Text: KO86 180810Z AUTO 31003KT 8SM SCT023 SCT028 OVC037 04/03 A3008 RMK AO1 P0001
Loading
Personal Weather Stations






























Interactive Weather Map New forecast layout! Learn more

10-Day Weather Forecast

Advertisements
Track Severe Weather on mobile